Flight Track Log - Related Links

Times and Time Zones

All times are in EDT time to prevent confusion due to time zone crossing. See the N555CP flight status page for this flight to view local times or setup timezone preferences in your user account.

Time Position Orientation Groundspeed Altitude Reporting Facility
EDT Latitude Longitude Course Direction KTS MPH feet Rate Location/Type
Mon 05:04:08 PM 39.8000 -119.9167 360° North 148 170 9,100  Level Northern Cal TRACON
Mon 05:04:30 PM 39.8072 -119.9247 319° Northwest 145 167 20,000 1,714 Climbing Oakland Center
Mon 05:05:32 PM 39.8361 -119.9469 329° Northwest 109 125 11,500 -3,707 Descending Oakland Center
Mon 05:06:33 PM 39.8703 -119.9708 332° Northwest 136 157 12,400 732 Climbing Oakland Center
Mon 05:07:35 PM 39.9053 -119.9972 330° Northwest 139 160 13,000 677 Climbing Oakland Center
Mon 05:08:37 PM 39.9350 -120.0194 330° Northwest 133 153 13,800 829 Climbing Oakland Center
Mon 05:09:38 PM 39.9775 -120.0403 339° North 132 152 14,700 829 Climbing Oakland Center
Mon 05:10:40 PM 40.0172 -120.0556 344° North 138 159 15,500 878 Climbing Oakland Center
Mon 05:11:41 PM 40.0547 -120.0744 339° North 144 166 16,500 927 Climbing Oakland Center
Mon 05:12:43 PM 40.0919 -120.0919 340° North 143 165 17,400 780 Climbing Oakland Center
Mon 05:13:44 PM 40.1286 -120.1094 340° North 141 162 18,100 537 Climbing Oakland Center
Mon 05:14:46 PM 40.1678 -120.1278 340° North 146 168 18,500 488 Climbing Oakland Center
Mon 05:15:47 PM 40.2075 -120.1458 341° North 148 170 19,100 488 Climbing Oakland Center
Mon 05:16:49 PM 40.2458 -120.1650 339° North 149 171 19,500 290 Climbing Oakland Center
Mon 05:17:51 PM 40.2922 -120.1878 339° North 148 170 19,700 244 Climbing Oakland Center
Mon 05:18:52 PM 40.3342 -120.2061 342° North 154 177 20,000 146 Climbing Oakland Center
Mon 05:19:54 PM 40.3783 -120.2286 339° North 166 191 20,000  Level Oakland Center
Mon 05:20:55 PM 40.4264 -120.2500 341° North 177 204 20,000  Level Oakland Center
Mon 05:21:57 PM 40.4742 -120.2731 340° North 181 208 20,000  Level Oakland Center
Mon 05:22:58 PM 40.5203 -120.2961 339° North 179 206 20,000  Level Oakland Center
Mon 05:24:11 PM 40.5792 -120.3250 340° North 183 211 20,000  Level Seattle Center
Mon 05:25:12 PM 40.6289 -120.3481 341° North 187 215 20,000  Level Seattle Center
Mon 05:26:13 PM 40.6786 -120.3711 341° North 187 215 20,000  Level Seattle Center
Mon 05:27:05 PM 40.7175 -120.3906 339° North 190 219 20,000  Level Oakland Center
Mon 05:28:06 PM 40.7781 -120.4186 341° North 194 223 20,000  Level Oakland Center
Mon 05:29:08 PM 40.8244 -120.4431 338° Northwest 185 213 20,000  Level Oakland Center
Mon 05:30:10 PM 40.8706 -120.4656 340° North 180 207 20,000  Level Oakland Center
Mon 05:31:18 PM 40.9275 -120.4939 339° North 179 206 20,000  Level Seattle Center
Mon 05:32:19 PM 40.9725 -120.5156 340° North 175 201 20,000  Level Seattle Center
Mon 05:33:20 PM 41.0181 -120.5369 340° North 173 199 20,000  Level Seattle Center
Mon 05:34:21 PM 41.0628 -120.5597 339° North 174 200 20,000  Level Seattle Center
Mon 05:35:22 PM 41.1075 -120.5828 339° North 172 198 20,000  Level Seattle Center
Mon 05:36:23 PM 41.1539 -120.6047 340° North 176 203 20,000  Level Seattle Center
Mon 05:37:24 PM 41.2000 -120.6283 339° North 178 205 20,000  Level Seattle Center
Mon 05:38:25 PM 41.2475 -120.6514 340° North 182 209 20,000  Level Seattle Center
Mon 05:39:26 PM 41.2969 -120.6764 339° North 182 209 20,000  Level Seattle Center
Mon 05:40:26 PM 41.3428 -120.6989 340° North 184 212 20,000  Level Seattle Center
Mon 05:41:27 PM 41.3906 -120.7239 339° North 184 212 20,000  Level Seattle Center
Mon 05:42:28 PM 41.4378 -120.7467 340° North 183 211 20,000  Level Seattle Center
Mon 05:43:29 PM 41.4819 -120.7681 340° North 176 203 20,000  Level Seattle Center
Mon 05:44:30 PM 41.5319 -120.7939 339° North 166 191 20,000  Level Seattle Center
Mon 05:45:31 PM 41.5753 -120.8164 339° North 165 190 20,000  Level Seattle Center
Mon 05:46:32 PM 41.6200 -120.8383 340° North 167 192 20,000  Level Seattle Center
Mon 05:47:33 PM 41.6653 -120.8611 339° North 170 196 20,000  Level Seattle Center
Mon 05:48:34 PM 41.7111 -120.8842 339° North 173 199 20,000  Level Seattle Center
Mon 05:49:35 PM 41.7586 -120.9078 340° North 177 204 20,000  Level Seattle Center
Mon 05:50:36 PM 41.8067 -120.9319 339° North 180 207 20,000  Level Seattle Center
Mon 05:51:37 PM 41.8542 -120.9553 340° North 182 209 20,000  Level Seattle Center
Mon 05:52:38 PM 41.9017 -120.9806 338° Northwest 183 211 20,000  Level Seattle Center
Mon 05:53:39 PM 41.9492 -121.0044 339° North 183 211 20,000  Level Seattle Center
Mon 05:54:40 PM 41.9975 -121.0289 339° North 184 212 20,000  Level Seattle Center
Mon 05:55:41 PM 42.0469 -121.0547 339° North 187 215 20,000  Level Seattle Center
Mon 05:56:42 PM 42.1050 -121.0836 340° North 187 215 20,000  Level Seattle Center
Mon 05:57:43 PM 42.1528 -121.1081 339° North 186 214 20,000  Level Seattle Center
Mon 05:58:44 PM 42.2019 -121.1331 339° North 186 214 20,000  Level Seattle Center
Mon 05:59:45 PM 42.2522 -121.1586 339° North 190 219 20,000  Level Seattle Center
Mon 06:00:46 PM 42.3014 -121.1844 339° North 190 219 20,000  Level Seattle Center
Mon 06:01:47 PM 42.3525 -121.2092 340° North 193 222 20,000  Level Seattle Center
Mon 06:02:48 PM 42.4017 -121.2358 338° Northwest 193 222 20,000  Level Seattle Center
Mon 06:03:49 PM 42.4517 -121.2606 340° North 192 221 20,000  Level Seattle Center
Mon 06:04:50 PM 42.5017 -121.2867 339° North 192 221 20,000  Level Seattle Center
Mon 06:05:51 PM 42.5531 -121.3131 339° North 196 226 20,000  Level Seattle Center
Mon 06:06:52 PM 42.6050 -121.3386 340° North 198 228 20,000  Level Seattle Center
Mon 06:07:53 PM 42.6642 -121.3694 339° North 193 222 20,000  Level Seattle Center
Mon 06:08:54 PM 42.7167 -121.3961 340° North 199 229 20,000  Level Seattle Center
Mon 06:09:55 PM 42.7686 -121.4231 339° North 200 230 20,000  Level Seattle Center
Mon 06:10:56 PM 42.8197 -121.4508 338° Northwest 199 229 20,000  Level Seattle Center
Mon 06:11:57 PM 42.8714 -121.4772 339° North 198 228 20,000  Level Seattle Center
Mon 06:12:58 PM 42.9225 -121.5039 339° North 198 228 20,000  Level Seattle Center
Mon 06:13:59 PM 42.9731 -121.5308 339° North 196 226 20,000  Level Seattle Center
Mon 06:15:00 PM 43.0239 -121.5575 339° North 196 226 20,000  Level Seattle Center
Mon 06:16:01 PM 43.0736 -121.5831 339° North 193 222 20,000  Level Seattle Center
Mon 06:17:02 PM 43.1244 -121.6103 339° North 194 223 20,000  Level Seattle Center
Mon 06:18:03 PM 43.1742 -121.6369 339° North 192 221 20,000  Level Seattle Center
Mon 06:19:04 PM 43.2250 -121.6639 339° North 196 226 20,000  Level Seattle Center
Mon 06:20:05 PM 43.2769 -121.6900 340° North 198 228 20,000  Level Seattle Center
Mon 06:21:06 PM 43.3289 -121.7197 337° Northwest 203 234 20,000  Level Seattle Center
Mon 06:22:06 PM 43.3894 -121.7492 341° North 193 222 20,000  Level Seattle Center
Mon 06:23:07 PM 43.4411 -121.7767 339° North 198 228 20,000  Level Seattle Center
Mon 06:24:08 PM 43.4922 -121.8053 338° Northwest 199 229 20,000  Level Seattle Center
Mon 06:25:09 PM 43.5439 -121.8319 339° North 199 229 20,000  Level Seattle Center
Mon 06:26:10 PM 43.5978 -121.8614 338° Northwest 206 237 20,000  Level Seattle Center
Mon 06:27:11 PM 43.6494 -121.8869 340° North 201 231 20,000  Level Seattle Center
Mon 06:28:12 PM 43.7025 -121.9167 338° Northwest 204 235 20,000  Level Seattle Center
Mon 06:29:13 PM 43.7567 -121.9444 340° North 206 237 20,000  Level Seattle Center
Mon 06:30:14 PM 43.8100 -121.9747 338° Northwest 208 239 20,000  Level Seattle Center
Mon 06:31:15 PM 43.8644 -122.0022 340° North 209 241 20,000  Level Seattle Center
Mon 06:32:16 PM 43.9169 -122.0306 339° North 205 236 20,000  Level Seattle Center
Mon 06:33:16 PM 43.9808 -122.0656 338° Northwest 205 236 20,000  Level Seattle Center
Mon 06:34:17 PM 44.0344 -122.0950 338° Northwest 207 238 20,000  Level Seattle Center
Mon 06:35:18 PM 44.0875 -122.1181 343° North 203 234 20,000  Level Seattle Center
Mon 06:36:19 PM 44.1433 -122.1425 343° North 208 239 20,000 -148 Level Seattle Center
Mon 06:37:20 PM 44.1986 -122.1664 343° North 208 239 19,700 -393 Descending Seattle Center
Mon 06:38:21 PM 44.2583 -122.1928 342° North 221 254 19,200 -590 Descending Seattle Center
Mon 06:39:22 PM 44.3203 -122.2189 343° North 228 262 18,500 -645 Descending Seattle Center
Mon 06:40:22 PM 44.3819 -122.2461 342° North 233 268 17,900 -545 Descending Seattle Center
Mon 06:41:23 PM 44.4417 -122.2722 343° North 227 261 17,400 -689 Descending Seattle Center
Mon 06:42:24 PM 44.5022 -122.2914 347° North 242 278 16,500 -738 Descending Seattle Center
Mon 06:43:25 PM 44.5678 -122.2667 15° North 245 282 15,900 -738 Descending Seattle Center
Mon 06:44:26 PM 44.6325 -122.2406 16° North 244 281 15,000 -836 Descending Seattle Center
Mon 06:45:27 PM 44.6972 -122.2211 12° North 240 276 14,200 -978 Descending Seattle Center
Mon 06:45:58 PM 44.7322 -122.2544 326° Northwest 215 247 13,500 -885 Descending Seattle Center
Mon 06:46:28 PM 44.7492 -122.2642 338° Northwest 220 253 13,300 -987 Descending Seattle Center
Mon 06:47:17 PM 44.8069 -122.3003 336° Northwest 235 270 12,200 -689 Descending Seattle Center
Mon 06:48:30 PM 44.8739 -122.3419 336° Northwest 222 255 11,900 -574 Descending Seattle Center
Mon 06:49:12 PM 44.9144 -122.3692 335° Northwest 217 250 11,100 -1,000 Descending Seattle Center
Mon 06:49:30 PM 44.9294 -122.3778 338° Northwest 223 257 10,900 -984 Descending Seattle Center
Mon 06:50:13 PM 44.9694 -122.4047 335° Northwest 223 257 10,100 -984 Descending Seattle Center
Mon 06:50:31 PM 44.9853 -122.4133 339° North 223 257 9,900 -689 Descending Seattle Center
Mon 06:51:14 PM 45.0250 -122.4431 332° Northwest 217 250 9,400 -590 Descending Seattle Center
Mon 06:51:32 PM 45.0389 -122.4497 341° North 218 251 9,300 -1,100 Descending Seattle Center
Mon 06:52:14 PM 45.0794 -122.4761 335° Northwest 213 245 8,300 -1,279 Descending Seattle Center
Mon 06:52:33 PM 45.0933 -122.4847 336° Northwest 216 249 8,000 -1,180 Descending Seattle Center
Mon 06:53:15 PM 45.1369 -122.5139 335° Northwest 225 259 7,100 -1,082 Descending Seattle Center
Mon 06:53:34 PM 45.1486 -122.5222 333° Northwest 219 252 6,900 -1,180 Descending Seattle Center
Mon 06:54:16 PM 45.1947 -122.5517 336° Northwest 224 258 5,900 -984 Descending Seattle Center
Mon 06:54:35 PM 45.2056 -122.5586 336° Northwest 224 258 5,900 -1,164 Level Seattle Center
Mon 06:55:23 PM 45.2547 -122.5917 335° Northwest 215 247 4,600 -1,266 Descending Seattle Center
Mon 06:56:24 PM 45.3097 -122.6275 335° Northwest 220 253 3,600 -694 Descending Seattle Center
Mon 06:57:24 PM 45.3675 -122.6347 355° North 211 243 3,200 -298 Descending Seattle Center
Mon 06:58:25 PM 45.4217 -122.6344 360° North 197 227 3,000 -98 Descending Seattle Center
Mon 06:59:26 PM 45.4578 -122.6842 316° Northwest 162 186 3,000  Level Seattle Center
Mon 07:00:27 PM 45.4614 -122.7350 276° West 148 170 3,000 -298 Level Seattle Center
Mon 07:01:27 PM 45.4175 -122.7436 188° South 165 190 2,400 -640 Descending Seattle Center
Mon 07:01:42 PM 45.4108 -122.7447 187° South 163 188 2,200 -800 Descending Seattle Center

Login

Don't have an account? Register now (free) for customized features, flight alerts, and more!